Time;durP1;ratioP1;P1;durP2;ratioP2;P2;SDS_P1;SDS_P2;PMS_P1;PMS_P2;Temp;Humidity;BMP_temperature;BMP_pressure;BME280_temperature;BME280_humidity;BME280_pressure;Samples;Min_cycle;Max_cycle;Signal;HPM_P1;HPM_P2
2021/04/13 00:01:12;;;;;;;5.43;4.07;;;5.60;1.00;;;;;;5071970;28;20529;-64
2021/04/13 00:03:44;;;;;;;4.40;4.00;;;5.60;1.00;;;;;;5071853;28;20444;-62
2021/04/13 00:06:13;;;;;;;5.30;3.90;;;5.50;1.00;;;;;;5073392;28;21037;-62
2021/04/13 00:08:40;;;;;;;4.93;4.10;;;5.50;1.00;;;;;;5071983;28;20438;-62
2021/04/13 00:11:08;;;;;;;7.60;3.80;;;5.50;1.00;;;;;;5072907;28;20442;-62
2021/04/13 00:13:37;;;;;;;7.40;3.90;;;5.60;1.00;;;;;;5083262;28;20473;-62
2021/04/13 00:16:10;;;;;;;4.83;4.33;;;5.70;1.00;;;;;;5079050;28;20784;-62
2021/04/13 00:18:40;;;;;;;5.20;3.80;;;5.70;1.00;;;;;;5075748;28;20506;-61
2021/04/13 00:21:08;;;;;;;8.20;4.47;;;5.70;1.00;;;;;;5077247;28;20467;-61
2021/04/13 00:23:34;;;;;;;4.70;4.30;;;5.70;1.00;;;;;;5090506;28;20439;-61
2021/04/13 00:26:02;;;;;;;5.80;4.60;;;5.70;1.00;;;;;;5079568;28;20505;-62
2021/04/13 00:28:32;;;;;;;8.80;4.00;;;5.60;1.00;;;;;;5074101;28;20851;-62
2021/04/13 00:31:02;;;;;;;5.60;3.93;;;5.60;1.00;;;;;;5071561;28;20796;-62
2021/04/13 00:33:34;;;;;;;4.53;3.97;;;5.50;1.00;;;;;;5069360;28;20565;-62
2021/04/13 00:36:15;;;;;;;6.47;5.30;;;5.50;1.00;;;;;;5077633;28;21029;-62
2021/04/13 00:38:46;;;;;;;9.90;4.07;;;5.40;1.00;;;;;;5074785;28;20432;-64
2021/04/13 00:41:30;;;;;;;5.70;4.40;;;5.30;1.00;;;;;;5079228;28;20433;-63
2021/04/13 00:44:09;;;;;;;4.30;3.90;;;5.30;1.00;;;;;;5074635;28;20449;-62
2021/04/13 00:46:52;;;;;;;5.63;4.53;;;5.20;1.00;;;;;;5080939;28;20803;-63
2021/04/13 00:49:22;;;;;;;7.00;5.13;;;5.10;1.00;;;;;;5072555;28;20524;-62
2021/04/13 00:51:52;;;;;;;7.23;4.43;;;5.10;1.00;;;;;;5074508;28;20448;-63
2021/04/13 00:54:32;;;;;;;4.20;3.80;;;5.00;1.00;;;;;;5070829;28;20473;-63
2021/04/13 00:57:04;;;;;;;5.03;4.53;;;5.00;1.00;;;;;;5085497;28;20997;-62
2021/04/13 00:59:31;;;;;;;4.40;4.00;;;5.00;1.00;;;;;;5079891;28;20430;-63
2021/04/13 01:02:00;;;;;;;5.30;4.63;;;5.00;1.00;;;;;;5072454;28;20433;-63
2021/04/13 01:05:14;;;;;;;5.43;4.50;;;5.00;1.00;;;;;;5070947;28;20559;-64
2021/04/13 01:07:40;;;;;;;9.00;4.53;;;5.00;1.00;;;;;;4995013;28;21018;-63
2021/04/13 01:10:12;;;;;;;6.53;4.70;;;5.10;1.00;;;;;;5068868;28;20509;-62
2021/04/13 01:12:43;;;;;;;7.80;4.60;;;5.00;1.00;;;;;;5070790;28;20425;-61
2021/04/13 01:15:12;;;;;;;8.07;5.03;;;5.00;1.00;;;;;;5077156;28;20465;-63
2021/04/13 01:17:40;;;;;;;6.80;5.00;;;5.10;1.00;;;;;;5089542;28;20424;-62
2021/04/13 01:20:10;;;;;;;11.80;5.27;;;5.00;1.00;;;;;;5085548;28;20494;-62
2021/04/13 01:26:01;;;;;;;4.70;3.90;;;5.00;1.00;;;;;;5027432;28;20565;-63
2021/04/13 01:28:30;;;;;;;8.33;5.50;;;4.90;1.00;;;;;;5031127;28;20553;-63
2021/04/13 01:31:44;;;;;;;8.63;5.17;;;4.90;1.00;;;;;;5059885;28;20791;-62
2021/04/13 01:34:24;;;;;;;4.97;4.50;;;4.90;1.00;;;;;;5078954;28;20467;-63
2021/04/13 01:37:13;;;;;;;6.50;4.47;;;5.00;1.00;;;;;;5080056;28;20439;-62
2021/04/13 01:39:47;;;;;;;4.97;4.47;;;4.90;1.00;;;;;;5077447;28;20460;-62
2021/04/13 01:42:15;;;;;;;6.20;4.97;;;4.80;1.00;;;;;;5068076;28;20448;-62
2021/04/13 01:44:48;;;;;;;6.77;4.80;;;4.80;1.00;;;;;;5075712;28;20453;-62
2021/04/13 01:47:17;;;;;;;5.33;4.83;;;5.00;1.00;;;;;;5078892;28;20502;-62
2021/04/13 01:49:51;;;;;;;6.70;4.40;;;5.00;1.00;;;;;;5082137;28;20444;-62
2021/04/13 01:52:35;;;;;;;6.53;4.67;;;5.00;1.00;;;;;;5070132;28;20483;-62
2021/04/13 01:55:06;;;;;;;8.73;4.73;;;4.80;1.00;;;;;;5070125;28;20480;-62
2021/04/13 01:57:51;;;;;;;5.90;4.67;;;4.90;1.00;;;;;;5070661;28;20461;-63
2021/04/13 02:00:22;;;;;;;5.83;4.70;;;4.90;1.00;;;;;;5080860;28;20433;-63
2021/04/13 02:02:54;;;;;;;7.60;5.30;;;4.90;1.00;;;;;;5070353;28;20541;-62
2021/04/13 02:05:25;;;;;;;6.37;5.00;;;4.80;1.00;;;;;;5074019;28;20471;-62
2021/04/13 02:07:59;;;;;;;6.67;5.27;;;4.90;1.00;;;;;;5079047;28;20827;-62
2021/04/13 02:10:33;;;;;;;7.13;5.20;;;4.90;1.00;;;;;;5069772;28;20452;-61
2021/04/13 02:13:15;;;;;;;5.70;4.73;;;4.90;1.00;;;;;;5074041;28;20452;-61
2021/04/13 02:15:48;;;;;;;6.03;4.90;;;4.90;1.00;;;;;;5068798;28;20467;-62
2021/04/13 02:18:23;;;;;;;5.40;4.90;;;4.80;1.00;;;;;;5065796;28;20437;-61
2021/04/13 02:20:50;;;;;;;6.20;5.03;;;4.90;1.00;;;;;;5078590;28;20428;-61
2021/04/13 02:23:26;;;;;;;7.60;5.57;;;4.80;1.00;;;;;;5078984;28;20938;-63
2021/04/13 02:25:52;;;;;;;5.73;5.20;;;4.80;1.00;;;;;;5074135;28;20444;-61
2021/04/13 02:28:19;;;;;;;6.07;5.53;;;4.80;1.00;;;;;;5072111;28;21002;-62
2021/04/13 02:30:46;;;;;;;6.37;5.53;;;4.80;1.00;;;;;;5085454;28;20453;-64
2021/04/13 02:33:18;;;;;;;11.03;5.30;;;4.80;1.00;;;;;;5069372;28;20437;-62
2021/04/13 02:35:44;;;;;;;6.10;5.43;;;4.70;1.00;;;;;;5069007;28;20529;-63
2021/04/13 02:38:23;;;;;;;5.80;4.70;;;4.70;1.00;;;;;;5081097;28;20973;-63
2021/04/13 02:41:11;;;;;;;6.77;5.20;;;4.70;1.00;;;;;;5078887;28;20782;-62
2021/04/13 02:43:44;;;;;;;7.90;5.40;;;4.70;1.00;;;;;;5069965;28;20464;-62
2021/04/13 02:46:15;;;;;;;5.10;4.60;;;4.80;1.00;;;;;;5087688;28;20527;-63
2021/04/13 02:48:49;;;;;;;6.03;5.37;;;4.70;1.00;;;;;;5073231;28;20453;-62
2021/04/13 02:51:16;;;;;;;7.53;5.20;;;4.60;1.00;;;;;;5081871;28;20591;-61
2021/04/13 02:53:53;;;;;;;7.90;6.40;;;4.60;1.00;;;;;;5073469;28;20464;-62
2021/04/13 02:56:40;;;;;;;5.60;4.67;;;4.50;1.00;;;;;;5073254;28;21035;-62
2021/04/13 02:59:12;;;;;;;8.60;5.70;;;4.50;1.00;;;;;;5080029;28;21017;-61
2021/04/13 03:01:47;;;;;;;6.73;4.30;;;4.60;1.00;;;;;;5084478;28;20441;-62
2021/04/13 03:04:14;;;;;;;6.80;5.27;;;4.60;1.00;;;;;;5078828;28;20840;-62
2021/04/13 03:06:47;;;;;;;10.23;7.30;;;4.70;1.00;;;;;;5076270;28;20444;-63
2021/04/13 03:09:15;;;;;;;6.90;5.20;;;4.70;1.00;;;;;;5085979;28;20921;-62
2021/04/13 03:11:49;;;;;;;6.17;5.50;;;4.70;1.00;;;;;;5088226;28;20466;-61
2021/04/13 03:14:18;;;;;;;7.70;5.70;;;4.70;1.00;;;;;;5088914;28;20482;-61
2021/04/13 03:16:47;;;;;;;6.50;5.30;;;4.70;1.00;;;;;;5080052;28;20945;-62
2021/04/13 03:19:16;;;;;;;5.33;4.53;;;4.70;1.00;;;;;;5067928;28;20882;-62
2021/04/13 03:21:47;;;;;;;7.17;4.80;;;4.70;1.00;;;;;;5077351;28;20425;-62
2021/04/13 03:24:18;;;;;;;7.10;4.33;;;4.80;1.00;;;;;;5085073;28;20456;-61
2021/04/13 03:26:55;;;;;;;8.33;5.73;;;4.80;1.00;;;;;;5086342;28;20864;-61
2021/04/13 03:29:25;;;;;;;6.07;5.47;;;4.70;1.00;;;;;;5071267;28;20445;-62
2021/04/13 03:31:52;;;;;;;5.70;4.83;;;4.70;1.00;;;;;;5076573;28;20976;-61
2021/04/13 03:34:18;;;;;;;6.93;5.00;;;4.70;1.00;;;;;;5077387;28;20475;-61
2021/04/13 03:36:46;;;;;;;6.20;5.20;;;4.70;1.00;;;;;;5076877;28;20456;-62
2021/04/13 03:39:25;;;;;;;5.73;5.20;;;4.80;1.00;;;;;;5081334;28;20424;-61
2021/04/13 03:41:51;;;;;;;6.23;5.47;;;4.80;1.00;;;;;;5087027;28;20443;-61
2021/04/13 03:44:18;;;;;;;7.10;5.40;;;4.80;1.00;;;;;;5085934;28;20458;-61
2021/04/13 03:46:44;;;;;;;7.03;5.20;;;4.90;1.00;;;;;;5071682;28;20457;-62
2021/04/13 03:49:29;;;;;;;7.00;5.40;;;5.20;1.00;;;;;;5073261;28;20442;-62
2021/04/13 03:52:04;;;;;;;5.50;5.00;;;4.80;1.00;;;;;;5074825;28;20452;-62
2021/04/13 03:54:33;;;;;;;5.70;5.20;;;4.80;1.00;;;;;;5070423;28;20464;-62
2021/04/13 03:57:00;;;;;;;6.73;5.67;;;4.80;1.00;;;;;;5081096;28;21071;-63
2021/04/13 03:59:39;;;;;;;5.67;5.17;;;4.70;1.00;;;;;;5078092;28;20452;-61
2021/04/13 04:02:07;;;;;;;5.87;5.30;;;4.70;1.00;;;;;;5075337;28;20445;-61
2021/04/13 04:04:39;;;;;;;8.33;5.70;;;4.80;1.00;;;;;;5079971;28;20544;-63
2021/04/13 04:07:31;;;;;;;8.83;5.80;;;4.80;1.00;;;;;;5080106;28;20456;-62
2021/04/13 04:09:57;;;;;;;6.50;5.67;;;4.80;1.00;;;;;;5088236;28;20438;-61
2021/04/13 04:12:26;;;;;;;7.73;5.50;;;4.80;1.00;;;;;;5078384;28;20440;-63
2021/04/13 04:15:07;;;;;;;5.67;5.07;;;4.80;1.00;;;;;;5081558;28;20674;-63
2021/04/13 04:17:36;;;;;;;7.27;6.10;;;4.80;1.00;;;;;;5074974;28;20437;-62
2021/04/13 04:20:08;;;;;;;8.10;5.63;;;4.80;1.00;;;;;;5073271;28;20428;-63
2021/04/13 04:22:36;;;;;;;12.17;9.93;;;4.80;1.00;;;;;;5079945;28;20510;-60
2021/04/13 04:25:14;;;;;;;6.87;5.43;;;4.80;1.00;;;;;;5069804;28;20533;-61
2021/04/13 04:27:41;;;;;;;8.00;5.90;;;4.90;1.00;;;;;;5071307;28;20488;-61
2021/04/13 04:30:24;;;;;;;7.43;6.03;;;4.80;1.00;;;;;;5070987;28;20546;-61
2021/04/13 04:32:50;;;;;;;9.00;6.07;;;4.90;1.00;;;;;;5071297;28;20440;-60
2021/04/13 04:35:42;;;;;;;7.30;6.37;;;5.00;1.00;;;;;;5071238;28;20499;-62
2021/04/13 04:38:30;;;;;;;7.57;6.47;;;5.00;1.00;;;;;;5070069;28;20457;-60
2021/04/13 04:40:59;;;;;;;6.40;5.80;;;5.00;1.00;;;;;;5068656;28;20486;-61
2021/04/13 04:43:44;;;;;;;7.93;6.20;;;5.00;1.00;;;;;;5071289;28;20729;-61
2021/04/13 04:46:10;;;;;;;8.30;7.50;;;;;;;;;;5070042;28;20956;-61
2021/04/13 04:48:38;;;;;;;8.63;7.30;;;5.00;1.00;;;;;;5071128;28;20425;-61
2021/04/13 04:51:08;;;;;;;8.83;6.17;;;5.20;1.00;;;;;;5080952;28;20440;-60
2021/04/13 04:53:35;;;;;;;7.50;6.20;;;5.10;1.00;;;;;;5078889;28;20465;-60
2021/04/13 04:56:04;;;;;;;7.47;6.67;;;5.20;1.00;;;;;;5079040;28;20433;-61
2021/04/13 04:58:30;;;;;;;9.20;6.97;;;5.20;1.00;;;;;;5078002;28;20461;-62
2021/04/13 05:00:56;;;;;;;9.23;7.10;;;5.40;1.00;;;;;;5070833;28;20847;-61
2021/04/13 05:03:23;;;;;;;10.47;6.53;;;5.40;1.00;;;;;;5068949;28;20426;-60
2021/04/13 05:05:50;;;;;;;8.53;7.00;;;5.40;1.00;;;;;;5079129;28;20481;-63
2021/04/13 05:08:17;;;;;;;10.70;6.50;;;5.50;1.00;;;;;;5075430;28;20436;-61
2021/04/13 05:10:43;;;;;;;9.47;7.60;;;5.50;1.00;;;;;;5072517;28;20450;-60
2021/04/13 05:13:08;;;;;;;10.10;7.10;;;5.60;1.00;;;;;;5069371;28;20425;-62
2021/04/13 05:15:34;;;;;;;9.10;8.20;;;5.50;1.00;;;;;;5070485;28;20529;-60
2021/04/13 05:18:00;;;;;;;8.43;7.57;;;5.60;1.00;;;;;;5069016;28;20449;-60
2021/04/13 05:20:26;;;;;;;9.50;7.43;;;;;;;;;;5069866;28;20198;-62
2021/04/13 05:22:53;;;;;;;11.70;8.00;;;5.70;1.00;;;;;;5069968;28;20537;-60
2021/04/13 05:25:18;;;;;;;9.53;8.27;;;5.70;1.00;;;;;;5070452;28;20429;-60
2021/04/13 05:27:45;;;;;;;9.20;7.20;;;5.90;1.00;;;;;;5068859;28;20473;-61
2021/04/13 05:30:11;;;;;;;8.53;6.80;;;6.00;1.00;;;;;;5071545;28;20636;-61
2021/04/13 05:32:37;;;;;;;7.83;7.13;;;5.90;1.00;;;;;;5090753;28;21321;-60
2021/04/13 05:35:04;;;;;;;9.30;8.07;;;6.00;1.00;;;;;;5076043;28;20462;-61
2021/04/13 05:37:31;;;;;;;9.07;7.87;;;6.00;1.00;;;;;;5069543;28;20444;-61
2021/04/13 05:39:57;;;;;;;9.47;7.20;;;5.90;1.00;;;;;;5068888;28;20514;-61
2021/04/13 05:42:29;;;;;;;9.50;7.73;;;5.80;1.00;;;;;;5067626;28;20950;-62
2021/04/13 05:44:56;;;;;;;7.80;6.93;;;6.10;1.00;;;;;;5069125;28;20437;-61
2021/04/13 05:47:24;;;;;;;9.83;8.43;;;5.80;1.00;;;;;;5069987;28;20574;-61
2021/04/13 05:49:49;;;;;;;10.10;7.87;;;5.80;1.00;;;;;;5070190;28;20456;-61
2021/04/13 05:52:15;;;;;;;8.83;7.00;;;5.80;1.00;;;;;;5069883;28;20446;-61
2021/04/13 05:54:40;;;;;;;8.57;7.70;;;5.80;1.00;;;;;;5068155;28;20203;-61
2021/04/13 05:57:10;;;;;;;8.73;7.20;;;6.10;1.00;;;;;;5070013;28;20195;-61
2021/04/13 05:59:36;;;;;;;9.37;7.60;;;6.10;1.00;;;;;;5069637;28;20179;-61
2021/04/13 06:02:03;;;;;;;10.87;7.53;;;6.20;1.00;;;;;;5070373;28;20490;-61
2021/04/13 06:04:29;;;;;;;11.40;7.57;;;6.30;1.00;;;;;;5069761;28;20183;-60
2021/04/13 06:06:54;;;;;;;10.87;7.50;;;6.20;1.00;;;;;;5069819;28;20467;-60
2021/04/13 06:09:20;;;;;;;10.33;8.00;;;6.30;1.00;;;;;;5069713;28;20191;-61
2021/04/13 06:11:47;;;;;;;8.60;7.70;;;6.30;1.00;;;;;;5068289;28;20703;-61
2021/04/13 06:14:14;;;;;;;10.77;7.60;;;6.40;1.00;;;;;;5069828;28;20996;-61
2021/04/13 06:16:42;;;;;;;9.03;7.53;;;6.30;1.00;;;;;;5068023;28;20438;-62
2021/04/13 06:19:08;;;;;;;9.20;7.43;;;6.40;1.00;;;;;;5069943;28;20434;-61
2021/04/13 06:21:34;;;;;;;8.60;7.43;;;6.40;1.00;;;;;;5069745;28;20435;-62
2021/04/13 06:24:00;;;;;;;8.47;7.23;;;6.50;1.00;;;;;;5070162;28;20430;-61
2021/04/13 06:26:26;;;;;;;9.60;8.10;;;6.50;1.00;;;;;;5072547;28;20507;-60
2021/04/13 06:28:52;;;;;;;8.60;7.70;;;6.40;1.00;;;;;;5072439;28;20450;-61
2021/04/13 06:31:17;;;;;;;9.83;7.73;;;6.70;1.00;;;;;;5072042;28;20919;-61
2021/04/13 06:33:43;;;;;;;8.87;7.10;;;6.70;1.00;;;;;;5073296;28;20199;-61
2021/04/13 06:36:09;;;;;;;9.37;6.80;;;6.60;1.00;;;;;;5073157;28;20190;-61
2021/04/13 06:38:38;;;;;;;13.43;8.47;;;6.50;1.00;;;;;;5077821;28;20665;-61
2021/04/13 06:41:45;;;;;;;8.90;7.50;;;6.40;1.00;;;;;;5071879;28;21048;-60
2021/04/13 06:44:29;;;;;;;9.17;8.23;;;6.50;1.00;;;;;;5073334;28;20429;-60
2021/04/13 06:47:06;;;;;;;9.87;8.50;;;6.50;1.00;;;;;;5072266;28;20433;-61
2021/04/13 06:50:13;;;;;;;11.40;8.00;;;7.10;1.00;;;;;;5077592;28;20492;-60
2021/04/13 06:53:17;;;;;;;9.57;8.07;;;6.80;1.00;;;;;;5065222;28;20445;-60
2021/04/13 06:56:25;;;;;;;8.37;7.57;;;6.90;1.00;;;;;;5072702;28;20850;-61
2021/04/13 06:59:09;;;;;;;9.47;6.83;;;6.90;1.00;;;;;;5085915;28;20460;-61
2021/04/13 07:01:50;;;;;;;11.40;7.77;;;6.70;1.00;;;;;;5072031;28;20429;-60
2021/04/13 07:04:40;;;;;;;10.20;7.20;;;6.60;1.00;;;;;;5072781;28;20527;-62
2021/04/13 07:07:17;;;;;;;9.00;7.50;;;6.70;1.00;;;;;;5072314;28;20433;-61
2021/04/13 07:09:49;;;;;;;9.57;7.63;;;6.80;1.00;;;;;;5072586;28;20924;-61
2021/04/13 07:12:40;;;;;;;8.20;7.20;;;7.10;1.00;;;;;;5072696;28;20530;-62
2021/04/13 07:15:13;;;;;;;8.90;7.20;;;7.40;1.00;;;;;;5070952;28;20556;-61
2021/04/13 07:17:45;;;;;;;9.20;7.47;;;7.50;1.00;;;;;;5072102;28;20453;-62
2021/04/13 07:20:17;;;;;;;8.87;7.97;;;7.40;1.00;;;;;;5072161;28;20437;-61
2021/04/13 07:22:52;;;;;;;9.13;7.40;;;7.60;1.00;;;;;;5072705;28;20434;-63
2021/04/13 07:25:22;;;;;;;8.53;7.17;;;7.60;1.00;;;;;;5072517;28;20972;-61
2021/04/13 07:28:04;;;;;;;10.80;7.50;;;7.30;1.00;;;;;;5069059;28;20538;-62
2021/04/13 07:30:48;;;;;;;7.90;7.03;;;7.70;1.00;;;;;;5071241;28;20487;-62
2021/04/13 07:33:19;;;;;;;9.03;7.20;;;7.40;1.00;;;;;;5071842;28;20441;-61
2021/04/13 07:35:46;;;;;;;8.20;7.40;;;7.70;1.00;;;;;;5071170;28;20982;-61
2021/04/13 07:38:43;;;;;;;11.47;7.70;;;7.60;1.00;;;;;;5072163;28;20476;-62
2021/04/13 07:41:21;;;;;;;9.90;7.83;;;7.70;1.00;;;;;;5068862;28;20825;-60
2021/04/13 07:44:05;;;;;;;8.63;7.50;;;7.80;1.00;;;;;;5070384;28;20921;-61
2021/04/13 07:46:59;;;;;;;7.27;6.50;;;7.80;1.00;;;;;;5071516;28;20441;-62
2021/04/13 07:49:36;;;;;;;8.83;7.40;;;8.20;1.00;;;;;;5070158;28;20450;-61
2021/04/13 07:52:18;;;;;;;7.70;6.30;;;8.20;1.00;;;;;;5071941;28;20544;-63
2021/04/13 07:54:53;;;;;;;8.00;6.70;;;8.50;1.00;;;;;;5070798;28;20665;-62
2021/04/13 07:57:43;;;;;;;7.63;6.60;;;8.90;1.00;;;;;;5070800;28;20943;-61
2021/04/13 08:00:26;;;;;;;10.30;8.20;;;8.90;1.00;;;;;;5078278;28;20444;-61
2021/04/13 08:03:22;;;;;;;7.77;7.07;;;8.90;1.00;;;;;;5084800;28;20449;-61
2021/04/13 08:05:50;;;;;;;8.93;7.47;;;9.10;1.00;;;;;;5071246;28;20442;-62
2021/04/13 08:08:37;;;;;;;8.93;7.10;;;8.70;1.00;;;;;;5070853;28;20991;-61
2021/04/13 08:11:17;;;;;;;6.50;5.90;;;8.70;1.00;;;;;;5077358;28;20444;-61
2021/04/13 08:13:45;;;;;;;7.03;6.03;;;8.70;1.00;;;;;;5077626;28;20469;-61
2021/04/13 08:16:37;;;;;;;10.37;7.13;;;8.40;1.00;;;;;;5070462;28;20472;-61
2021/04/13 08:19:22;;;;;;;7.97;6.20;;;8.40;1.00;;;;;;5075735;28;20441;-60
2021/04/13 08:22:06;;;;;;;7.10;6.50;;;8.50;1.00;;;;;;5086289;28;20431;-61
2021/04/13 08:24:33;;;;;;;7.27;6.40;;;8.20;1.00;;;;;;5071627;28;20457;-61
2021/04/13 08:27:37;;;;;;;7.60;6.80;;;8.00;1.00;;;;;;5071530;28;21047;-61
2021/04/13 08:30:28;;;;;;;8.00;6.00;;;8.50;1.00;;;;;;5040233;28;20899;-61
2021/04/13 08:33:21;;;;;;;6.00;5.37;;;8.50;1.00;;;;;;5071139;28;20954;-62
2021/04/13 08:36:19;;;;;;;6.83;5.77;;;8.80;1.00;;;;;;5090868;28;20530;-60
2021/04/13 08:39:08;;;;;;;8.63;5.97;;;8.90;1.00;;;;;;5069102;28;20433;-60
2021/04/13 08:41:45;;;;;;;7.53;5.70;;;9.00;1.00;;;;;;5068425;28;20445;-62
2021/04/13 08:44:34;;;;;;;6.43;5.70;;;9.10;1.00;;;;;;5074970;28;20438;-60
2021/04/13 08:47:02;;;;;;;6.60;5.97;;;8.90;1.00;;;;;;5090878;28;20433;-61
2021/04/13 08:49:56;;;;;;;5.97;5.40;;;9.00;1.00;;;;;;5072717;28;20450;-62
2021/04/13 08:52:34;;;;;;;6.20;5.50;;;9.20;1.00;;;;;;5066795;28;20433;-62
2021/04/13 08:55:10;;;;;;;8.03;5.47;;;9.50;1.00;;;;;;5070806;28;21838;-61
2021/04/13 08:57:40;;;;;;;5.93;5.33;;;9.30;1.00;;;;;;5070662;28;20430;-63
2021/04/13 09:00:35;;;;;;;5.63;4.77;;;9.50;1.00;;;;;;5070056;28;20431;-63
2021/04/13 09:03:04;;;;;;;10.30;3.97;;;9.70;1.00;;;;;;5070596;28;20538;-62
2021/04/13 09:05:32;;;;;;;5.93;5.10;;;9.50;1.00;;;;;;5069244;28;20942;-62
2021/04/13 09:08:12;;;;;;;5.20;4.23;;;9.70;1.00;;;;;;5070113;28;20730;-62
2021/04/13 09:11:07;;;;;;;4.87;4.30;;;10.00;1.00;;;;;;5070527;28;20453;-61
2021/04/13 09:13:37;;;;;;;4.73;4.33;;;10.40;1.00;;;;;;5069379;28;20443;-61
2021/04/13 09:16:05;;;;;;;7.93;5.10;;;10.40;1.00;;;;;;5070284;28;20519;-62
2021/04/13 09:18:47;;;;;;;6.60;4.43;;;10.50;1.00;;;;;;5068099;28;20443;-61
2021/04/13 09:21:37;;;;;;;5.20;4.47;;;10.20;1.00;;;;;;5080330;28;20795;-61
2021/04/13 09:24:21;;;;;;;3.93;3.63;;;9.70;1.00;;;;;;5090501;28;20433;-62
2021/04/13 09:26:56;;;;;;;6.53;4.40;;;9.70;1.00;;;;;;5073884;28;20549;-61
2021/04/13 09:29:29;;;;;;;5.17;4.17;;;9.30;1.00;;;;;;5067684;28;20438;-62
2021/04/13 09:31:55;;;;;;;5.40;4.90;;;9.30;1.00;;;;;;5070439;28;20442;-61
2021/04/13 09:34:20;;;;;;;4.93;4.43;;;9.40;1.00;;;;;;5068935;28;20552;-61
2021/04/13 09:36:55;;;;;;;5.57;5.00;;;9.40;1.00;;;;;;5070597;28;20187;-61
2021/04/13 09:39:42;;;;;;;4.77;4.37;;;9.20;1.00;;;;;;5069055;28;20179;-61
2021/04/13 09:42:40;;;;;;;5.03;4.07;;;9.70;1.00;;;;;;5070320;28;20426;-62
2021/04/13 09:45:08;;;;;;;4.13;3.73;;;9.80;1.00;;;;;;5070305;28;21024;-61
2021/04/13 09:48:16;;;;;;;4.90;4.50;;;10.10;1.00;;;;;;5070185;28;20441;-62
2021/04/13 09:51:00;;;;;;;4.90;4.07;;;10.30;1.00;;;;;;5070248;28;20426;-63
2021/04/13 09:54:06;;;;;;;4.67;4.27;;;10.60;1.00;;;;;;5070036;28;20872;-60
2021/04/13 09:56:43;;;;;;;4.00;3.60;;;10.30;1.00;;;;;;5070016;28;20431;-60
2021/04/13 09:59:14;;;;;;;5.37;3.90;;;10.30;1.00;;;;;;5068945;28;20475;-62
2021/04/13 10:02:00;;;;;;;4.03;3.40;;;10.30;1.00;;;;;;5069916;28;20499;-62
2021/04/13 10:04:32;;;;;;;3.83;3.50;;;9.80;1.00;;;;;;5068393;28;20438;-62
2021/04/13 10:07:19;;;;;;;4.77;3.10;;;9.60;1.00;;;;;;5070194;28;20467;-60
2021/04/13 10:09:46;;;;;;;4.07;3.73;;;9.20;1.00;;;;;;5070158;28;20434;-61
2021/04/13 10:12:27;;;;;;;5.77;3.87;;;9.50;1.00;;;;;;5070037;28;20438;-62
2021/04/13 10:14:59;;;;;;;4.60;3.50;;;9.70;1.00;;;;;;5070045;28;20462;-62
2021/04/13 10:17:35;;;;;;;3.17;2.40;;;10.00;1.00;;;;;;5069041;28;20821;-61
2021/04/13 10:20:14;;;;;;;2.83;2.63;;;10.70;1.00;;;;;;5068994;28;20437;-62
2021/04/13 10:23:06;;;;;;;3.20;2.90;;;10.50;1.00;;;;;;5068883;28;20440;-61
2021/04/13 10:26:01;;;;;;;5.47;3.33;;;10.20;1.00;;;;;;5070035;28;20507;-62
2021/04/13 10:28:42;;;;;;;4.30;3.37;;;10.40;1.00;;;;;;5069780;28;20445;-61
2021/04/13 10:31:36;;;;;;;6.97;3.30;;;10.20;1.00;;;;;;5069915;28;20433;-61
2021/04/13 10:34:35;;;;;;;3.53;2.90;;;9.90;1.00;;;;;;5069883;28;20462;-62
2021/04/13 10:37:39;;;;;;;3.33;3.03;;;9.90;1.00;;;;;;5069720;28;20517;-61
2021/04/13 10:40:38;;;;;;;4.53;3.30;;;9.60;1.00;;;;;;5069510;28;20523;-61
2021/04/13 10:43:22;;;;;;;2.77;2.57;;;9.40;1.00;;;;;;5069628;28;20458;-61
2021/04/13 10:46:05;;;;;;;3.07;2.77;;;9.60;1.00;;;;;;5076504;28;20474;-61
2021/04/13 10:49:03;;;;;;;4.00;3.20;;;9.90;1.00;;;;;;5067625;28;20823;-61
2021/04/13 10:51:50;;;;;;;3.43;3.13;;;10.10;1.00;;;;;;5068173;28;20537;-61
2021/04/13 10:54:33;;;;;;;10.10;3.83;;;10.30;1.00;;;;;;5069197;28;20486;-61
2021/04/13 10:57:11;;;;;;;5.67;4.00;;;10.50;1.00;;;;;;5069761;28;20435;-60
2021/04/13 10:59:50;;;;;;;3.80;3.40;;;10.40;1.00;;;;;;5069396;28;20504;-61
2021/04/13 11:02:56;;;;;;;4.07;3.33;;;10.40;1.00;;;;;;5067802;28;20438;-61
2021/04/13 11:05:59;;;;;;;2.80;2.60;;;10.20;1.00;;;;;;5068742;28;20536;-61
2021/04/13 11:08:44;;;;;;;2.50;2.30;;;10.30;1.00;;;;;;5069234;28;20437;-62
2021/04/13 11:11:23;;;;;;;2.27;2.07;;;10.70;1.00;;;;;;5071015;28;20449;-62
2021/04/13 11:14:08;;;;;;;5.57;2.70;;;11.30;1.00;;;;;;5072552;28;20462;-61
2021/04/13 11:17:01;;;;;;;4.03;3.40;;;12.90;1.00;;;;;;5073008;28;20418;-62
2021/04/13 11:19:53;;;;;;;4.30;2.30;;;10.60;1.00;;;;;;5073179;28;20434;-60
2021/04/13 11:23:07;;;;;;;4.87;3.13;;;10.00;1.00;;;;;;5073040;28;20488;-60
2021/04/13 11:25:56;;;;;;;2.60;2.40;;;10.20;1.00;;;;;;5024517;28;20437;-61
2021/04/13 11:28:37;;;;;;;2.20;1.70;;;10.50;1.00;;;;;;5072781;28;20455;-63
2021/04/13 11:31:31;;;;;;;3.43;1.90;;;10.90;1.00;;;;;;5072562;28;20447;-62
2021/04/13 11:34:12;;;;;;;3.43;2.13;;;11.00;1.00;;;;;;5072434;28;20799;-63
2021/04/13 11:36:50;;;;;;;3.87;2.50;;;10.80;1.00;;;;;;5072859;28;20441;-61
2021/04/13 11:39:38;;;;;;;2.13;1.90;;;10.60;1.00;;;;;;5072967;28;20611;-60
2021/04/13 11:42:15;;;;;;;2.40;2.20;;;10.70;1.00;;;;;;5071768;28;20447;-61
2021/04/13 11:44:46;;;;;;;4.07;2.57;;;11.00;1.00;;;;;;5072431;28;20952;-62
2021/04/13 11:47:40;;;;;;;3.70;2.13;;;11.20;1.00;;;;;;5072066;28;20467;-61
2021/04/13 11:50:19;;;;;;;2.87;2.07;;;11.10;1.00;;;;;;5063529;28;20462;-62
2021/04/13 11:52:53;;;;;;;2.63;2.43;;;10.70;1.00;;;;;;5072177;28;20435;-61
2021/04/13 11:55:28;;;;;;;2.90;2.00;;;10.60;1.00;;;;;;5072416;28;20548;-61
2021/04/13 11:58:14;;;;;;;5.13;2.67;;;10.30;1.00;;;;;;5071804;28;20583;-63
2021/04/13 12:00:40;;;;;;;4.20;2.23;;;10.40;1.00;;;;;;5091206;28;20844;-61
2021/04/13 12:03:31;;;;;;;2.90;2.60;;;10.40;1.00;;;;;;5092198;28;21018;-61
2021/04/13 12:06:05;;;;;;;2.80;2.50;;;10.20;1.00;;;;;;5091874;28;20438;-61
2021/04/13 12:08:37;;;;;;;2.90;2.10;;;10.20;1.00;;;;;;5092316;28;20429;-62
2021/04/13 12:11:10;;;;;;;2.67;2.47;;;10.50;1.00;;;;;;5082726;28;20490;-62
2021/04/13 12:13:49;;;;;;;1.97;1.70;;;10.60;1.00;;;;;;5070458;28;20531;-61
2021/04/13 12:16:21;;;;;;;2.47;1.83;;;10.50;1.00;;;;;;5070135;28;20832;-62
2021/04/13 12:19:14;;;;;;;2.07;1.60;;;10.70;1.00;;;;;;5071961;28;20444;-62
2021/04/13 12:21:45;;;;;;;2.63;1.87;;;10.90;1.00;;;;;;5063256;28;20476;-61
2021/04/13 12:24:45;;;;;;;5.00;2.00;;;11.20;1.00;;;;;;5067851;28;21146;-61
2021/04/13 12:27:25;;;;;;;3.63;1.60;;;11.40;1.00;;;;;;5062115;28;20483;-63
2021/04/13 12:30:12;;;;;;;1.40;1.30;;;11.50;1.00;;;;;;5070465;28;20444;-62
2021/04/13 12:32:44;;;;;;;1.93;1.63;;;11.70;1.00;;;;;;5039133;28;20456;-63
2021/04/13 12:35:10;;;;;;;3.47;1.73;;;11.50;1.00;;;;;;5080269;28;20861;-61
2021/04/13 12:37:45;;;;;;;1.57;1.40;;;11.50;1.00;;;;;;5073937;28;20534;-61
2021/04/13 12:40:20;;;;;;;2.73;1.50;;;11.20;1.00;;;;;;5070737;28;20259;-61
2021/04/13 12:43:05;;;;;;;1.70;1.57;;;10.80;1.00;;;;;;5071319;28;20445;-62
2021/04/13 12:45:46;;;;;;;6.03;1.67;;;10.50;1.00;;;;;;5071178;28;20452;-62
2021/04/13 12:48:17;;;;;;;2.50;1.47;;;10.50;1.00;;;;;;5068494;28;20440;-61
2021/04/13 12:50:52;;;;;;;2.80;1.20;;;10.80;1.00;;;;;;5069938;28;20791;-61
2021/04/13 12:53:24;;;;;;;2.80;1.50;;;10.70;1.00;;;;;;5069449;28;20799;-63
2021/04/13 12:56:07;;;;;;;2.13;1.70;;;10.70;1.00;;;;;;5070477;28;20474;-61
2021/04/13 12:58:37;;;;;;;2.30;1.50;;;10.60;1.00;;;;;;5070387;28;20784;-63
2021/04/13 13:01:04;;;;;;;1.87;1.77;;;10.80;1.00;;;;;;5069730;28;20475;-62
2021/04/13 13:03:39;;;;;;;1.53;1.43;;;10.40;1.00;;;;;;5070315;28;21005;-61
2021/04/13 13:06:15;;;;;;;3.70;1.77;;;10.30;1.00;;;;;;5069473;28;20435;-61
2021/04/13 13:08:40;;;;;;;5.13;2.13;;;10.40;1.00;;;;;;5069227;28;20434;-62
2021/04/13 13:11:10;;;;;;;1.63;1.30;;;10.30;1.00;;;;;;5070285;28;20578;-62
2021/04/13 13:13:39;;;;;;;3.90;1.27;;;10.30;1.00;;;;;;5070245;28;20586;-61
2021/04/13 13:16:17;;;;;;;4.27;1.13;;;10.00;1.00;;;;;;5070286;28;20901;-61
2021/04/13 13:18:47;;;;;;;1.33;0.90;;;11.50;1.00;;;;;;5070230;28;20442;-62
2021/04/13 13:21:17;;;;;;;1.43;1.00;;;10.10;1.00;;;;;;5070191;28;20943;-60
2021/04/13 13:23:55;;;;;;;4.23;1.53;;;10.30;1.00;;;;;;5069266;28;20768;-61
2021/04/13 13:26:31;;;;;;;2.00;1.10;;;10.20;1.00;;;;;;5070081;28;20461;-62
2021/04/13 13:28:56;;;;;;;1.60;1.20;;;10.50;1.00;;;;;;5090705;28;20425;-61
2021/04/13 13:31:29;;;;;;;2.83;1.13;;;10.50;1.00;;;;;;5082426;28;20781;-60
2021/04/13 13:34:05;;;;;;;2.53;1.10;;;10.90;1.00;;;;;;5068718;28;20618;-61
2021/04/13 13:36:35;;;;;;;2.07;1.13;;;11.20;1.00;;;;;;5070400;28;20440;-63
2021/04/13 13:39:05;;;;;;;2.10;1.23;;;11.10;1.00;;;;;;5070219;28;20423;-62
2021/04/13 13:41:33;;;;;;;1.47;1.10;;;11.00;1.00;;;;;;5070230;28;20432;-62
2021/04/13 13:43:59;;;;;;;1.17;1.00;;;11.00;1.00;;;;;;5069692;28;20436;-63
2021/04/13 13:46:35;;;;;;;2.10;1.60;;;11.00;1.00;;;;;;5068679;28;20775;-62
2021/04/13 13:49:51;;;;;;;1.80;1.13;;;11.00;1.00;;;;;;5067508;28;20854;-61
2021/04/13 13:52:42;;;;;;;2.03;1.60;;;10.90;1.00;;;;;;5035943;28;20494;-63
2021/04/13 13:55:16;;;;;;;2.50;1.70;;;10.90;1.00;;;;;;5070004;28;20474;-63
2021/04/13 13:58:03;;;;;;;3.00;1.40;;;11.10;1.00;;;;;;5069089;28;20437;-62